createdAt,value
2023-01-09T00:04:26.024Z,6.09
2023-01-09T00:09:26.882Z,6.06
2023-01-09T00:14:27.994Z,6.04
2023-01-09T00:19:28.785Z,6.05
2023-01-09T00:24:29.702Z,5.92
2023-01-09T00:29:31.002Z,5.84
2023-01-09T00:34:36.635Z,5.68
2023-01-09T00:39:38.633Z,5.60
2023-01-09T00:44:45.739Z,5.29
2023-01-09T00:49:48.235Z,5.29
2023-01-09T00:54:49.443Z,5.21
2023-01-09T00:59:51.778Z,5.08
2023-01-09T01:05:11.752Z,5.05
2023-01-09T01:10:19.372Z,5.13
2023-01-09T01:15:20.788Z,5.10
2023-01-09T01:20:22.150Z,5.15
2023-01-09T01:25:23.171Z,5.21
2023-01-09T01:30:24.006Z,5.06
2023-01-09T01:35:25.996Z,5.01
2023-01-09T01:40:27.281Z,5.09
2023-01-09T01:45:29.477Z,5.07
2023-01-09T01:51:05.751Z,5.09
2023-01-09T01:56:31.690Z,5.07
2023-01-09T02:01:33.627Z,5.07
2023-01-09T02:06:34.600Z,5.06
2023-01-09T02:11:35.445Z,5.15
2023-01-09T02:18:06.113Z,5.15
2023-01-09T02:25:21.705Z,5.16
2023-01-09T02:30:32.680Z,5.25
2023-01-09T02:37:15.548Z,5.16
2023-01-09T02:42:22.832Z,5.18
2023-01-09T02:47:45.896Z,5.27
2023-01-09T02:54:00.348Z,5.20
2023-01-09T03:00:47.082Z,5.30
2023-01-09T03:07:22.075Z,5.30
2023-01-09T03:12:27.268Z,5.34
2023-01-09T03:17:34.853Z,5.32
2023-01-09T03:22:36.032Z,5.25
2023-01-09T03:27:37.237Z,5.23
2023-01-09T03:32:38.022Z,5.21
2023-01-09T03:37:38.737Z,5.14
2023-01-09T03:42:39.659Z,5.21
2023-01-09T03:47:40.412Z,5.19
2023-01-09T03:52:41.201Z,5.29
2023-01-09T03:57:42.255Z,5.28
2023-01-09T04:02:43.081Z,5.20
2023-01-09T04:07:43.967Z,5.18
2023-01-09T04:12:45.040Z,5.17
2023-01-09T04:17:45.763Z,5.15
2023-01-09T04:22:46.560Z,4.99
2023-01-09T04:27:49.357Z,4.91
2023-01-09T04:32:51.616Z,4.88
2023-01-09T04:37:52.330Z,4.86
2023-01-09T04:42:53.264Z,4.83
2023-01-09T04:47:54.000Z,4.82
2023-01-09T04:52:55.958Z,4.75
2023-01-09T04:57:56.677Z,4.64
2023-01-09T05:02:57.442Z,4.62
2023-01-09T05:07:58.166Z,4.47
2023-01-09T05:12:59.016Z,4.30
2023-01-09T05:17:59.751Z,4.23
2023-01-09T05:23:00.823Z,4.31
2023-01-09T05:28:01.554Z,4.34
2023-01-09T05:33:02.797Z,4.29
2023-01-09T05:38:03.536Z,4.32
2023-01-09T05:43:04.468Z,4.29
2023-01-09T05:48:05.619Z,4.44
2023-01-09T05:53:06.447Z,4.30
2023-01-09T05:58:07.172Z,4.32
2023-01-09T06:03:07.990Z,4.25
2023-01-09T06:08:08.769Z,4.22
2023-01-09T06:13:09.729Z,4.11
2023-01-09T06:18:10.434Z,4.10
2023-01-09T06:23:13.373Z,4.03
2023-01-09T06:28:14.428Z,4.09
2023-01-09T06:33:15.139Z,4.14
2023-01-09T06:38:16.137Z,4.23
2023-01-09T06:43:17.116Z,4.24
2023-01-09T06:48:17.879Z,4.21
2023-01-09T06:53:18.850Z,4.19
2023-01-09T06:58:19.833Z,4.05
2023-01-09T07:03:21.721Z,4.03
2023-01-09T07:08:22.610Z,4.06
2023-01-09T07:13:23.409Z,4.05
2023-01-09T07:18:24.462Z,4.04
2023-01-09T07:23:25.619Z,3.95
2023-01-09T07:28:26.395Z,3.94
2023-01-09T07:33:27.591Z,4.00
2023-01-09T07:38:28.634Z,4.02
2023-01-09T07:43:29.537Z,4.00
2023-01-09T07:48:30.323Z,4.11
2023-01-09T07:53:31.100Z,4.14
2023-01-09T07:58:31.905Z,4.20
2023-01-09T08:03:33.149Z,4.14
2023-01-09T08:08:33.940Z,4.18
2023-01-09T08:13:34.864Z,4.20
2023-01-09T08:18:35.608Z,4.24
2023-01-09T08:23:37.105Z,4.32
2023-01-09T08:28:37.870Z,4.34
2023-01-09T08:33:40.450Z,4.40
2023-01-09T08:38:41.722Z,4.50
2023-01-09T08:44:01.092Z,4.59
2023-01-09T08:49:01.922Z,4.53
2023-01-09T08:54:02.811Z,4.56
2023-01-09T08:59:03.556Z,4.70
2023-01-09T09:04:05.175Z,4.79
2023-01-09T09:09:06.128Z,4.67
2023-01-09T09:14:25.733Z,4.77
2023-01-09T09:19:26.692Z,4.86
2023-01-09T09:24:27.480Z,4.82
2023-01-09T09:29:28.228Z,4.77
2023-01-09T09:34:29.093Z,4.89
2023-01-09T09:39:30.034Z,4.96
2023-01-09T09:44:56.331Z,4.93
2023-01-09T09:50:19.177Z,4.99
2023-01-09T09:55:26.579Z,5.02
2023-01-09T10:00:27.313Z,5.12
2023-01-09T10:05:37.086Z,5.09
2023-01-09T10:10:44.824Z,5.17
2023-01-09T10:15:56.761Z,5.04
2023-01-09T10:21:04.251Z,5.05
2023-01-09T10:26:27.167Z,5.04
2023-01-09T10:36:11.912Z,5.25
2023-01-09T10:41:37.431Z,5.24
2023-01-09T10:46:48.109Z,5.39
2023-01-09T10:52:19.800Z,5.34
2023-01-09T10:57:56.703Z,5.36
2023-01-09T11:02:57.479Z,5.46
2023-01-09T11:08:13.003Z,5.39
2023-01-09T11:13:26.162Z,5.42
2023-01-09T11:18:27.258Z,5.48
2023-01-09T11:23:32.846Z,5.44
2023-01-09T11:28:33.798Z,5.42
2023-01-09T11:33:42.072Z,5.40
2023-01-09T11:38:53.235Z,5.37
2023-01-09T11:43:57.574Z,5.34
2023-01-09T11:49:01.467Z,5.52
2023-01-09T11:54:14.590Z,5.64
2023-01-09T11:59:22.265Z,5.82
2023-01-09T12:04:55.497Z,5.68
2023-01-09T12:10:28.735Z,5.67
2023-01-09T12:16:30.673Z,5.69
2023-01-09T12:21:55.471Z,5.63
2023-01-09T12:27:16.011Z,5.71
2023-01-09T12:33:27.934Z,5.71
2023-01-09T12:38:53.700Z,5.77
2023-01-09T12:44:39.848Z,5.69
2023-01-09T12:50:07.694Z,5.68
2023-01-09T12:55:29.487Z,5.58
2023-01-09T13:00:43.351Z,5.57
2023-01-09T13:05:49.935Z,5.56
2023-01-09T13:10:55.140Z,5.53
2023-01-09T13:16:05.599Z,5.50
2023-01-09T13:21:07.850Z,5.47
2023-01-09T13:29:47.413Z,5.47
2023-01-09T13:34:52.840Z,5.57
2023-01-09T13:40:02.753Z,5.54
2023-01-09T13:45:24.695Z,5.48
2023-01-09T13:50:27.480Z,5.46
2023-01-09T13:55:34.807Z,5.42
2023-01-09T14:00:59.947Z,5.36
2023-01-09T14:06:04.499Z,5.37
2023-01-09T14:11:05.720Z,5.31
2023-01-09T14:16:22.907Z,5.39
2023-01-09T14:21:23.849Z,5.40
2023-01-09T14:26:44.995Z,5.44
2023-01-09T14:31:46.017Z,5.45
2023-01-09T14:36:46.888Z,5.39
2023-01-09T14:41:57.002Z,5.46
2023-01-09T14:47:27.609Z,5.38
2023-01-09T14:52:51.419Z,5.39
2023-01-09T14:57:54.318Z,5.26
2023-01-09T15:02:55.355Z,5.16
2023-01-09T15:08:01.011Z,5.16
2023-01-09T15:13:06.617Z,5.09
2023-01-09T15:18:09.797Z,5.16
2023-01-09T15:23:21.331Z,5.21
2023-01-09T15:28:31.404Z,5.20
2023-01-09T15:33:33.959Z,5.00
2023-01-09T15:38:35.398Z,4.86
2023-01-09T15:43:40.528Z,4.74
2023-01-09T15:48:41.596Z,4.52
2023-01-09T15:53:45.181Z,4.42
2023-01-09T15:58:48.392Z,4.28
2023-01-09T16:03:49.520Z,4.30
2023-01-09T16:08:55.019Z,4.29
2023-01-09T16:14:01.003Z,4.26
2023-01-09T16:19:01.821Z,4.28
2023-01-09T16:24:23.560Z,4.25
2023-01-09T16:29:44.136Z,4.19
2023-01-09T16:34:50.273Z,4.12
2023-01-09T16:42:59.413Z,4.08
2023-01-09T16:48:02.434Z,4.01
2023-01-09T16:53:14.668Z,3.95
2023-01-09T16:58:23.421Z,3.96
2023-01-09T17:03:24.679Z,3.92
2023-01-09T17:08:31.520Z,3.80
2023-01-09T17:13:32.304Z,3.86
2023-01-09T17:18:33.093Z,3.74
2023-01-09T17:23:34.130Z,3.72
2023-01-09T17:28:35.346Z,3.73
2023-01-09T17:33:37.696Z,3.73
2023-01-09T17:38:38.556Z,3.79
2023-01-09T17:43:41.432Z,3.79
2023-01-09T17:48:44.027Z,3.77
2023-01-09T17:53:44.852Z,3.76
2023-01-09T17:58:47.176Z,3.80
2023-01-09T18:03:49.682Z,3.62
2023-01-09T18:08:50.541Z,3.55
2023-01-09T18:13:55.466Z,3.47
2023-01-09T18:18:58.165Z,3.37
2023-01-09T18:24:01.383Z,3.32
2023-01-09T18:29:02.892Z,3.33
2023-01-09T18:34:05.985Z,3.34
2023-01-09T18:39:08.102Z,3.35
2023-01-09T18:44:08.887Z,3.37
2023-01-09T18:49:09.803Z,3.38
2023-01-09T18:54:12.361Z,3.40
2023-01-09T18:59:13.157Z,3.44
2023-01-09T19:04:14.105Z,3.50
2023-01-09T19:09:15.236Z,3.57
2023-01-09T19:14:16.278Z,3.60
2023-01-09T19:19:17.151Z,3.66
2023-01-09T19:24:20.326Z,3.71
2023-01-09T19:29:21.852Z,3.67
2023-01-09T19:34:23.305Z,3.66
2023-01-09T19:39:24.181Z,3.68
2023-01-09T19:44:25.100Z,3.70
2023-01-09T19:49:25.965Z,3.72
2023-01-09T19:54:28.411Z,3.76
2023-01-09T19:59:29.735Z,3.78
2023-01-09T20:04:30.864Z,3.79
2023-01-09T20:09:31.987Z,3.80
2023-01-09T20:14:35.657Z,3.86
2023-01-09T20:19:36.417Z,3.94
2023-01-09T20:24:38.496Z,3.98
2023-01-09T20:29:39.287Z,4.04
2023-01-09T20:34:41.949Z,4.10
2023-01-09T20:39:42.854Z,4.09
2023-01-09T20:44:43.633Z,4.09
2023-01-09T20:49:44.380Z,4.16
2023-01-09T20:54:45.249Z,4.10
2023-01-09T20:59:46.008Z,4.13
2023-01-09T21:04:46.966Z,4.19
2023-01-09T21:09:47.788Z,4.19
2023-01-09T21:14:48.600Z,4.23
2023-01-09T21:19:49.447Z,4.21
2023-01-09T21:24:50.919Z,4.24
2023-01-09T21:29:54.541Z,4.24
2023-01-09T21:34:55.337Z,4.18
2023-01-09T21:39:56.231Z,4.22
2023-01-09T21:45:15.215Z,4.17
2023-01-09T21:50:17.460Z,4.15
2023-01-09T21:55:18.444Z,4.25
2023-01-09T22:00:19.682Z,4.25
2023-01-09T22:05:21.038Z,4.11
2023-01-09T22:10:22.221Z,4.07
2023-01-09T22:15:22.986Z,4.09
2023-01-09T22:20:23.805Z,4.26
2023-01-09T22:25:24.660Z,4.18
2023-01-09T22:30:25.460Z,4.23
2023-01-09T22:35:26.206Z,4.24
2023-01-09T22:40:27.389Z,4.18
2023-01-09T22:45:29.082Z,4.20
2023-01-09T22:50:29.975Z,4.06
2023-01-09T22:55:30.747Z,4.04
2023-01-09T23:00:32.891Z,4.04
2023-01-09T23:05:33.669Z,3.87
2023-01-09T23:10:35.255Z,3.75
2023-01-09T23:15:35.982Z,3.76
2023-01-09T23:20:36.768Z,3.78
2023-01-09T23:25:37.486Z,3.67
2023-01-09T23:30:38.278Z,3.60
2023-01-09T23:35:39.503Z,3.45
2023-01-09T23:40:41.250Z,3.35
2023-01-09T23:45:44.454Z,3.29
2023-01-09T23:50:48.990Z,3.20
2023-01-09T23:55:54.133Z,3.18
